Schillplate — ZDJJ8 — position and weather

sailwx.info

Track history (hours):
 
Tides and Currents Weather Stations Pressure Air Temp Water Temp Dewpoint Dewpoint Depression Visibility Wind Speed Wind Dir Waves Ship Positions

Schillplate

Last reported at 2015-Jul-05 07:09 UTC. Time now 2015-Jul-06 00:58 UTC.
Position N 50°23' W 000°50'.

Length 86 m; draft 5.5 m.

Type: Cargo ship. MMSI: 236111603.

Date/timePositionNaut miles runAvg speedWind from/ knotsBaromVisibWave heightAir tempDewpointWater temp
2015-Jul-05 07:09N 50°23' W 000°50'1011.3
2015-Jul-05 06:18N 50°26' W 000°35'912.0
2015-Jul-05 05:32N 50°29' W 000°21'2511.5
2015-Jul-05 03:20N 50°35' E 000°17'810.5
2015-Jul-05 02:33N 50°38' E 000°29'9 9.5
2015-Jul-05 01:33N 50°42' E 000°42'9 8.6
2015-Jul-05 00:33N 50°47' E 000°53'8 8.5
2015-Jul-04 23:33N 50°52' E 001°04'12 9.6
2015-Jul-04 22:18N 51°00' E 001°19'912.3
2015-Jul-04 21:33N 51°06' E 001°30'1312.7
2015-Jul-04 20:33N 51°14' E 001°45'1111.1
2015-Jul-04 19:33N 51°24' E 001°53'9 9.4
2015-Jul-04 18:33N 51°32' E 002°02'9 8.5
2015-Jul-04 17:33N 51°38' E 002°12'8 7.8
2015-Jul-04 16:31N 51°44' E 002°21'16 7.5
2015-Jul-04 14:25N 51°56' E 002°38'7 8.2
2015-Jul-04 13:33N 52°01' E 002°45'10 9.7
2015-Jul-04 12:33N 52°09' E 002°55'1110.9
2015-Jul-04 11:33N 52°18' E 003°05'1111.3
2015-Jul-04 10:34N 52°27' E 003°16'1311.4
2015-Jul-04 09:24N 52°37' E 003°30'2910.2
2015-Jul-04 06:33N 52°59' E 004°01'9 9.1
2015-Jul-04 05:33N 53°05' E 004°12'9 8.6
2015-Jul-04 04:33N 53°11' E 004°23'9 9.4
2015-Jul-04 03:33N 53°19' E 004°30'1110.7
2015-Jul-04 02:33N 53°29' E 004°38'1211.9
2015-Jul-04 01:33N 53°34' E 004°56'1111.4
2015-Jul-04 00:34N 53°37' E 005°14'1110.8
2015-Jul-03 23:34N 53°40' E 005°32'1010.1
2015-Jul-03 22:33N 53°43' E 005°48'27 9.1
2015-Jul-03 19:32N 53°52' E 006°32'2811.5
2015-Jul-03 17:07N 53°59' E 007°18'7 8.9
2015-Jul-03 16:22N 54°01' E 007°29'1011.6
2015-Jul-03 15:33N 54°02' E 007°45'1211.6
2015-Jul-03 14:34N 54°02' E 008°05'1211.9
2015-Jul-03 13:33N 53°60' E 008°25'10 9.8
2015-Jul-03 12:34N 53°56' E 008°40'8 7.5
2015-Jul-03 11:33N 53°51' E 008°49'7 7.2
2015-Jul-03 10:33N 53°52' E 009°01'9 8.7
2015-Jul-03 09:33N 53°53' E 009°16'1111.4
2015-Jul-03 08:34N 53°44' E 009°28'1212.1
2015-Jul-03 07:34N 53°34' E 009°40'1010.0
2015-Jul-03 06:33N 53°31' E 009°56'0 0.1
2015-Jul-03 04:30N 53°31' E 009°57'0 0.0
2015-Jul-03 02:13N 53°31' E 009°57'0 0.0
2015-Jul-03 01:30N 53°31' E 009°57'1 1.4
2015-Jul-03 00:33N 53°32' E 009°57'1 0.5
2015-Jul-02 23:28N 53°32' E 009°58'0 0.0
2015-Jul-02 22:34N 53°32' E 009°58'0 0.0
2015-Jul-02 21:28N 53°32' E 009°58'0 0.0
2015-Jul-02 20:28N 53°32' E 009°58'0 0.0
2015-Jul-02 19:34N 53°32' E 009°58'1 1.0
2015-Jul-02 18:33N 53°31' E 009°57'0 0.0
2015-Jul-02 17:30N 53°31' E 009°57'0 0.0
2015-Jul-02 16:30N 53°31' E 009°57'0 0.0
2015-Jul-02 15:24N 53°31' E 009°57'0 0.0
2015-Jul-02 14:30N 53°31' E 009°57'0 0.0
2015-Jul-02 13:30N 53°31' E 009°57'0 0.0
2015-Jul-02 12:30N 53°31' E 009°57'1 0.9
2015-Jul-02 11:34N 53°32' E 009°56'8 8.3
2015-Jul-02 10:33N 53°34' E 009°43'6 4.8
2015-Jul-02 09:13N 53°37' E 009°33'0 0.0
2015-Jul-02 07:25N 53°37' E 009°33'1 1.3
2015-Jul-02 06:33N 53°36' E 009°35'7 7.3
2015-Jul-02 05:33N 53°43' E 009°29'8 8.0
2015-Jul-02 04:34N 53°49' E 009°22'8 7.6
2015-Jul-02 03:33N 53°53' E 009°10'7 7.2
2015-Jul-02 02:33N 53°51' E 008°58'8 8.1
2015-Jul-02 01:33N 53°51' E 008°45'9 8.4
2015-Jul-02 00:27N 53°58' E 008°33'17 5.1
2015-Jul-01 21:12N 53°52' E 008°07'5 8.4
2015-Jul-01 20:33N 53°47' E 008°10'8 8.1
2015-Jul-01 19:33N 53°42' E 008°20'1311.9
2015-Jul-01 18:28N 53°32' E 008°35'0 0.1
2015-Jul-01 17:17N 53°32' E 008°35'0 0.0
2015-Jul-01 16:27N 53°32' E 008°35'0 0.0
2015-Jul-01 15:33N 53°32' E 008°35'0 0.0
2015-Jul-01 14:33N 53°32' E 008°35'0 0.0
2015-Jul-01 13:33N 53°32' E 008°35'0 0.0
2015-Jul-01 12:30N 53°32' E 008°35'0 0.0
2015-Jul-01 11:27N 53°32' E 008°35'0 0.0
2015-Jul-01 10:33N 53°32' E 008°35'0 0.0
2015-Jul-01 09:30N 53°32' E 008°35'0 0.0
2015-Jul-01 08:18N 53°32' E 008°35'0 0.0
2015-Jul-01 07:33N 53°32' E 008°35'0 0.0
2015-Jul-01 05:33N 53°32' E 008°35'0 0.0
2015-Jul-01 04:15N 53°32' E 008°35'0 0.0
2015-Jul-01 03:27N 53°32' E 008°35'0 0.0
2015-Jul-01 02:21N 53°32' E 008°35'0 0.0
2015-Jul-01 01:24N 53°32' E 008°35'0 0.0
2015-Jul-01 00:27N 53°32' E 008°35'0 0.0
2015-Jun-30 23:33N 53°32' E 008°35'0 0.0
2015-Jun-30 22:18N 53°32' E 008°35'0 0.0
2015-Jun-30 20:30N 53°32' E 008°35'0 0.0
2015-Jun-30 19:24N 53°32' E 008°35'0 0.0
2015-Jun-30 18:33N 53°32' E 008°35'0 0.0
2015-Jun-30 17:17N 53°32' E 008°35'0 0.0
2015-Jun-30 16:18N 53°32' E 008°35'0 0.0
2015-Jun-30 15:30N 53°32' E 008°35'0 0.0
2015-Jun-30 14:24N 53°32' E 008°35'0 0.0
2015-Jun-30 13:30N 53°32' E 008°35'0 0.0
2015-Jun-30 12:27N 53°32' E 008°35'0 0.0
2015-Jun-30 11:33N 53°32' E 008°35'0 0.0
2015-Jun-30 10:33N 53°32' E 008°35'0 0.0
2015-Jun-30 09:27N 53°32' E 008°35'0 0.0
2015-Jun-30 08:33N 53°32' E 008°35'0 0.0
2015-Jun-30 07:21N 53°32' E 008°35'0 0.0
2015-Jun-30 06:33N 53°32' E 008°35'0 0.0
2015-Jun-30 05:33N 53°32' E 008°35'0 0.0
2015-Jun-30 04:33N 53°32' E 008°35'0 0.0
2015-Jun-30 03:33N 53°32' E 008°35'0 0.0
2015-Jun-30 02:30N 53°32' E 008°35'0 0.0
2015-Jun-30 01:33N 53°32' E 008°35'0 0.0
2015-Jun-30 00:33N 53°32' E 008°35'0 0.0
2015-Jun-29 23:33N 53°32' E 008°35'0 0.0
2015-Jun-29 22:33N 53°32' E 008°35'0 0.0
2015-Jun-29 21:33N 53°32' E 008°35'0 0.0
2015-Jun-29 20:33N 53°32' E 008°35'0 0.0
2015-Jun-29 19:33N 53°32' E 008°35'0 0.0
2015-Jun-29 18:30N 53°32' E 008°35'0 0.0
2015-Jun-29 17:33N 53°32' E 008°35'0 0.0
2015-Jun-29 16:33N 53°32' E 008°35'0 0.0
2015-Jun-29 15:33N 53°32' E 008°35'0 0.0
2015-Jun-29 14:33N 53°32' E 008°35'0 0.0
2015-Jun-29 13:30N 53°32' E 008°35'0 0.0
2015-Jun-29 12:21N 53°32' E 008°35'0 0.0
2015-Jun-29 11:33N 53°32' E 008°35'0 0.0
2015-Jun-29 10:33N 53°32' E 008°35'0 0.0
2015-Jun-29 09:32N 53°32' E 008°35'0 0.0
2015-Jun-29 08:29N 53°32' E 008°35'0 0.0
2015-Jun-29 07:30N 53°32' E 008°35'0 0.0
2015-Jun-29 06:18N 53°32' E 008°35'0 0.0
2015-Jun-29 05:33N 53°32' E 008°35'0 0.0
2015-Jun-29 04:30N 53°32' E 008°35'0 0.0
2015-Jun-29 03:33N 53°32' E 008°35'0 0.0
2015-Jun-29 02:33N 53°32' E 008°35'0 0.0
2015-Jun-29 01:33N 53°32' E 008°35'0 0.0
2015-Jun-29 00:33N 53°32' E 008°35'0 0.0
2015-Jun-28 23:30N 53°32' E 008°35'0 0.0
2015-Jun-28 22:33N 53°32' E 008°35'0 0.0
2015-Jun-28 21:33N 53°32' E 008°35'0 0.0
2015-Jun-28 20:33N 53°32' E 008°35'0 0.0
2015-Jun-28 19:33N 53°32' E 008°35'0 0.0
2015-Jun-28 18:33N 53°32' E 008°35'0 0.0
2015-Jun-28 17:33N 53°32' E 008°35'0 0.0
2015-Jun-28 16:30N 53°32' E 008°35'0 0.0
2015-Jun-28 15:33N 53°32' E 008°35'0 0.0
2015-Jun-28 14:33N 53°32' E 008°35'0 0.0
2015-Jun-28 13:33N 53°32' E 008°35'0 0.1
2015-Jun-28 12:33N 53°32' E 008°35'0 0.0
2015-Jun-28 11:33N 53°32' E 008°35'0 0.0
2015-Jun-28 10:33N 53°32' E 008°35'0 0.0
2015-Jun-28 09:33N 53°32' E 008°35'0 0.0
2015-Jun-28 08:33N 53°32' E 008°35'0 0.0
2015-Jun-28 07:33N 53°32' E 008°35'0 0.0
2015-Jun-28 06:33N 53°32' E 008°35'0 0.0
2015-Jun-28 05:33N 53°32' E 008°35'0 0.0
2015-Jun-28 04:33N 53°32' E 008°35'0 0.0
2015-Jun-28 03:33N 53°32' E 008°35'0 0.0
2015-Jun-28 02:33N 53°32' E 008°35'0 0.0
2015-Jun-28 01:33N 53°32' E 008°35'0 0.0
2015-Jun-28 00:33N 53°32' E 008°35'0 0.0
2015-Jun-27 23:33N 53°32' E 008°35'0 0.1
2015-Jun-27 22:33N 53°32' E 008°35'6 5.8
2015-Jun-27 21:33N 53°37' E 008°29'10 9.6
2015-Jun-27 20:33N 53°43' E 008°17'1010.3
2015-Jun-27 19:33N 53°50' E 008°04'250 7.6
2015-Jun-26 10:32N 57°38' E 011°10'9 9.5
2015-Jun-26 09:33N 57°31' E 011°22'10 9.7
2015-Jun-26 08:33N 57°23' E 011°30'10 9.7
2015-Jun-26 07:33N 57°13' E 011°36'11 9.8
2015-Jun-26 06:25N 57°03' E 011°43'8 9.2
2015-Jun-26 05:34N 56°55' E 011°48'9 8.8
2015-Jun-26 04:34N 56°47' E 011°54'9 8.6
2015-Jun-26 03:34N 56°39' E 011°57'25 8.2
2015-Jun-26 00:33N 56°15' E 012°12'9 8.7
2015-Jun-25 23:33N 56°10' E 012°25'8 8.5
2015-Jun-25 22:33N 56°05' E 012°36'9 8.8
2015-Jun-25 21:34N 55°57' E 012°43'9 9.0
2015-Jun-25 20:33N 55°48' E 012°44'9 8.9
2015-Jun-25 19:33N 55°39' E 012°42'8 7.9
2015-Jun-25 18:33N 55°31' E 012°43'9 9.1
2015-Jun-25 17:33N 55°22' E 012°41'7 7.3
2015-Jun-25 16:33N 55°16' E 012°49'9 8.8
2015-Jun-25 15:33N 55°15' E 013°04'51 8.2
2015-Jun-25 09:18N 55°25' E 014°33'7 8.8
2015-Jun-25 08:33N 55°29' E 014°42'10 9.4
2015-Jun-25 07:29N 55°34' E 014°57'  
Track history (hours):
 
Tides and Currents Weather Stations Pressure Air Temp Water Temp Dewpoint Dewpoint Depression Visibility Wind Speed Wind Dir Waves Ship Positions

Schillplate

Last reported at 2015-Jul-05 07:09 UTC. Time now 2015-Jul-06 00:58 UTC.
Position N 50°23' W 000°50'.

Length 86 m; draft 5.5 m.

Type: Cargo ship. MMSI: 236111603.

Date/timePositionNaut miles runAvg speedWind from/ knotsBaromVisibWave heightAir tempDewpointWater temp
2015-Jul-05 07:09N 50°23' W 000°50'1011.3
2015-Jul-05 06:18N 50°26' W 000°35'912.0
2015-Jul-05 05:32N 50°29' W 000°21'2511.5
2015-Jul-05 03:20N 50°35' E 000°17'810.5
2015-Jul-05 02:33N 50°38' E 000°29'9 9.5
2015-Jul-05 01:33N 50°42' E 000°42'9 8.6
2015-Jul-05 00:33N 50°47' E 000°53'8 8.5
2015-Jul-04 23:33N 50°52' E 001°04'12 9.6
2015-Jul-04 22:18N 51°00' E 001°19'912.3
2015-Jul-04 21:33N 51°06' E 001°30'1312.7
2015-Jul-04 20:33N 51°14' E 001°45'1111.1
2015-Jul-04 19:33N 51°24' E 001°53'9 9.4
2015-Jul-04 18:33N 51°32' E 002°02'9 8.5
2015-Jul-04 17:33N 51°38' E 002°12'8 7.8
2015-Jul-04 16:31N 51°44' E 002°21'16 7.5
2015-Jul-04 14:25N 51°56' E 002°38'7 8.2
2015-Jul-04 13:33N 52°01' E 002°45'10 9.7
2015-Jul-04 12:33N 52°09' E 002°55'1110.9
2015-Jul-04 11:33N 52°18' E 003°05'1111.3
2015-Jul-04 10:34N 52°27' E 003°16'1311.4
2015-Jul-04 09:24N 52°37' E 003°30'2910.2
2015-Jul-04 06:33N 52°59' E 004°01'9 9.1
2015-Jul-04 05:33N 53°05' E 004°12'9 8.6
2015-Jul-04 04:33N 53°11' E 004°23'9 9.4
2015-Jul-04 03:33N 53°19' E 004°30'1110.7
2015-Jul-04 02:33N 53°29' E 004°38'1211.9
2015-Jul-04 01:33N 53°34' E 004°56'1111.4
2015-Jul-04 00:34N 53°37' E 005°14'1110.8
2015-Jul-03 23:34N 53°40' E 005°32'1010.1
2015-Jul-03 22:33N 53°43' E 005°48'27 9.1
2015-Jul-03 19:32N 53°52' E 006°32'2811.5
2015-Jul-03 17:07N 53°59' E 007°18'7 8.9
2015-Jul-03 16:22N 54°01' E 007°29'1011.6
2015-Jul-03 15:33N 54°02' E 007°45'1211.6
2015-Jul-03 14:34N 54°02' E 008°05'1211.9
2015-Jul-03 13:33N 53°60' E 008°25'10 9.8
2015-Jul-03 12:34N 53°56' E 008°40'8 7.5
2015-Jul-03 11:33N 53°51' E 008°49'7 7.2
2015-Jul-03 10:33N 53°52' E 009°01'9 8.7
2015-Jul-03 09:33N 53°53' E 009°16'1111.4
2015-Jul-03 08:34N 53°44' E 009°28'1212.1
2015-Jul-03 07:34N 53°34' E 009°40'1010.0
2015-Jul-03 06:33N 53°31' E 009°56'0 0.1
2015-Jul-03 04:30N 53°31' E 009°57'0 0.0
2015-Jul-03 02:13N 53°31' E 009°57'0 0.0
2015-Jul-03 01:30N 53°31' E 009°57'1 1.4
2015-Jul-03 00:33N 53°32' E 009°57'1 0.5
2015-Jul-02 23:28N 53°32' E 009°58'0 0.0
2015-Jul-02 22:34N 53°32' E 009°58'0 0.0
2015-Jul-02 21:28N 53°32' E 009°58'0 0.0
2015-Jul-02 20:28N 53°32' E 009°58'0 0.0
2015-Jul-02 19:34N 53°32' E 009°58'1 1.0
2015-Jul-02 18:33N 53°31' E 009°57'0 0.0
2015-Jul-02 17:30N 53°31' E 009°57'0 0.0
2015-Jul-02 16:30N 53°31' E 009°57'0 0.0
2015-Jul-02 15:24N 53°31' E 009°57'0 0.0
2015-Jul-02 14:30N 53°31' E 009°57'0 0.0
2015-Jul-02 13:30N 53°31' E 009°57'0 0.0
2015-Jul-02 12:30N 53°31' E 009°57'1 0.9
2015-Jul-02 11:34N 53°32' E 009°56'8 8.3
2015-Jul-02 10:33N 53°34' E 009°43'6 4.8
2015-Jul-02 09:13N 53°37' E 009°33'0 0.0
2015-Jul-02 07:25N 53°37' E 009°33'1 1.3
2015-Jul-02 06:33N 53°36' E 009°35'7 7.3
2015-Jul-02 05:33N 53°43' E 009°29'8 8.0
2015-Jul-02 04:34N 53°49' E 009°22'8 7.6
2015-Jul-02 03:33N 53°53' E 009°10'7 7.2
2015-Jul-02 02:33N 53°51' E 008°58'8 8.1
2015-Jul-02 01:33N 53°51' E 008°45'9 8.4
2015-Jul-02 00:27N 53°58' E 008°33'17 5.1
2015-Jul-01 21:12N 53°52' E 008°07'5 8.4
2015-Jul-01 20:33N 53°47' E 008°10'8 8.1
2015-Jul-01 19:33N 53°42' E 008°20'1311.9
2015-Jul-01 18:28N 53°32' E 008°35'0 0.1
2015-Jul-01 17:17N 53°32' E 008°35'0 0.0
2015-Jul-01 16:27N 53°32' E 008°35'0 0.0
2015-Jul-01 15:33N 53°32' E 008°35'0 0.0
2015-Jul-01 14:33N 53°32' E 008°35'0 0.0
2015-Jul-01 13:33N 53°32' E 008°35'0 0.0
2015-Jul-01 12:30N 53°32' E 008°35'0 0.0
2015-Jul-01 11:27N 53°32' E 008°35'0 0.0
2015-Jul-01 10:33N 53°32' E 008°35'0 0.0
2015-Jul-01 09:30N 53°32' E 008°35'0 0.0
2015-Jul-01 08:18N 53°32' E 008°35'0 0.0
2015-Jul-01 07:33N 53°32' E 008°35'0 0.0
2015-Jul-01 05:33N 53°32' E 008°35'0 0.0
2015-Jul-01 04:15N 53°32' E 008°35'0 0.0
2015-Jul-01 03:27N 53°32' E 008°35'0 0.0
2015-Jul-01 02:21N 53°32' E 008°35'0 0.0
2015-Jul-01 01:24N 53°32' E 008°35'0 0.0
2015-Jul-01 00:27N 53°32' E 008°35'0 0.0
2015-Jun-30 23:33N 53°32' E 008°35'0 0.0
2015-Jun-30 22:18N 53°32' E 008°35'0 0.0
2015-Jun-30 20:30N 53°32' E 008°35'0 0.0
2015-Jun-30 19:24N 53°32' E 008°35'0 0.0
2015-Jun-30 18:33N 53°32' E 008°35'0 0.0
2015-Jun-30 17:17N 53°32' E 008°35'0 0.0
2015-Jun-30 16:18N 53°32' E 008°35'0 0.0
2015-Jun-30 15:30N 53°32' E 008°35'0 0.0
2015-Jun-30 14:24N 53°32' E 008°35'0 0.0
2015-Jun-30 13:30N 53°32' E 008°35'0 0.0
2015-Jun-30 12:27N 53°32' E 008°35'0 0.0
2015-Jun-30 11:33N 53°32' E 008°35'0 0.0
2015-Jun-30 10:33N 53°32' E 008°35'0 0.0
2015-Jun-30 09:27N 53°32' E 008°35'0 0.0
2015-Jun-30 08:33N 53°32' E 008°35'0 0.0
2015-Jun-30 07:21N 53°32' E 008°35'0 0.0
2015-Jun-30 06:33N 53°32' E 008°35'0 0.0
2015-Jun-30 05:33N 53°32' E 008°35'0 0.0
2015-Jun-30 04:33N 53°32' E 008°35'0 0.0
2015-Jun-30 03:33N 53°32' E 008°35'0 0.0
2015-Jun-30 02:30N 53°32' E 008°35'0 0.0
2015-Jun-30 01:33N 53°32' E 008°35'0 0.0
2015-Jun-30 00:33N 53°32' E 008°35'0 0.0
2015-Jun-29 23:33N 53°32' E 008°35'0 0.0
2015-Jun-29 22:33N 53°32' E 008°35'0 0.0
2015-Jun-29 21:33N 53°32' E 008°35'0 0.0
2015-Jun-29 20:33N 53°32' E 008°35'0 0.0
2015-Jun-29 19:33N 53°32' E 008°35'0 0.0
2015-Jun-29 18:30N 53°32' E 008°35'0 0.0
2015-Jun-29 17:33N 53°32' E 008°35'0 0.0
2015-Jun-29 16:33N 53°32' E 008°35'0 0.0
2015-Jun-29 15:33N 53°32' E 008°35'0 0.0
2015-Jun-29 14:33N 53°32' E 008°35'0 0.0
2015-Jun-29 13:30N 53°32' E 008°35'0 0.0
2015-Jun-29 12:21N 53°32' E 008°35'0 0.0
2015-Jun-29 11:33N 53°32' E 008°35'0 0.0
2015-Jun-29 10:33N 53°32' E 008°35'0 0.0
2015-Jun-29 09:32N 53°32' E 008°35'0 0.0
2015-Jun-29 08:29N 53°32' E 008°35'0 0.0
2015-Jun-29 07:30N 53°32' E 008°35'0 0.0
2015-Jun-29 06:18N 53°32' E 008°35'0 0.0
2015-Jun-29 05:33N 53°32' E 008°35'0 0.0
2015-Jun-29 04:30N 53°32' E 008°35'0 0.0
2015-Jun-29 03:33N 53°32' E 008°35'0 0.0
2015-Jun-29 02:33N 53°32' E 008°35'0 0.0
2015-Jun-29 01:33N 53°32' E 008°35'0 0.0
2015-Jun-29 00:33N 53°32' E 008°35'0 0.0
2015-Jun-28 23:30N 53°32' E 008°35'0 0.0
2015-Jun-28 22:33N 53°32' E 008°35'0 0.0
2015-Jun-28 21:33N 53°32' E 008°35'0 0.0
2015-Jun-28 20:33N 53°32' E 008°35'0 0.0
2015-Jun-28 19:33N 53°32' E 008°35'0 0.0
2015-Jun-28 18:33N 53°32' E 008°35'0 0.0
2015-Jun-28 17:33N 53°32' E 008°35'0 0.0
2015-Jun-28 16:30N 53°32' E 008°35'0 0.0
2015-Jun-28 15:33N 53°32' E 008°35'0 0.0
2015-Jun-28 14:33N 53°32' E 008°35'0 0.0
2015-Jun-28 13:33N 53°32' E 008°35'0 0.1
2015-Jun-28 12:33N 53°32' E 008°35'0 0.0
2015-Jun-28 11:33N 53°32' E 008°35'0 0.0
2015-Jun-28 10:33N 53°32' E 008°35'0 0.0
2015-Jun-28 09:33N 53°32' E 008°35'0 0.0
2015-Jun-28 08:33N 53°32' E 008°35'0 0.0
2015-Jun-28 07:33N 53°32' E 008°35'0 0.0
2015-Jun-28 06:33N 53°32' E 008°35'0 0.0
2015-Jun-28 05:33N 53°32' E 008°35'0 0.0
2015-Jun-28 04:33N 53°32' E 008°35'0 0.0
2015-Jun-28 03:33N 53°32' E 008°35'0 0.0
2015-Jun-28 02:33N 53°32' E 008°35'0 0.0
2015-Jun-28 01:33N 53°32' E 008°35'0 0.0
2015-Jun-28 00:33N 53°32' E 008°35'0 0.0
2015-Jun-27 23:33N 53°32' E 008°35'0 0.1
2015-Jun-27 22:33N 53°32' E 008°35'6 5.8
2015-Jun-27 21:33N 53°37' E 008°29'10 9.6
2015-Jun-27 20:33N 53°43' E 008°17'1010.3
2015-Jun-27 19:33N 53°50' E 008°04'250 7.6
2015-Jun-26 10:32N 57°38' E 011°10'9 9.5
2015-Jun-26 09:33N 57°31' E 011°22'10 9.7
2015-Jun-26 08:33N 57°23' E 011°30'10 9.7
2015-Jun-26 07:33N 57°13' E 011°36'11 9.8
2015-Jun-26 06:25N 57°03' E 011°43'8 9.2
2015-Jun-26 05:34N 56°55' E 011°48'9 8.8
2015-Jun-26 04:34N 56°47' E 011°54'9 8.6
2015-Jun-26 03:34N 56°39' E 011°57'25 8.2
2015-Jun-26 00:33N 56°15' E 012°12'9 8.7
2015-Jun-25 23:33N 56°10' E 012°25'8 8.5
2015-Jun-25 22:33N 56°05' E 012°36'9 8.8
2015-Jun-25 21:34N 55°57' E 012°43'9 9.0
2015-Jun-25 20:33N 55°48' E 012°44'9 8.9
2015-Jun-25 19:33N 55°39' E 012°42'8 7.9
2015-Jun-25 18:33N 55°31' E 012°43'9 9.1
2015-Jun-25 17:33N 55°22' E 012°41'7 7.3
2015-Jun-25 16:33N 55°16' E 012°49'9 8.8
2015-Jun-25 15:33N 55°15' E 013°04'51 8.2
2015-Jun-25 09:18N 55°25' E 014°33'7 8.8
2015-Jun-25 08:33N 55°29' E 014°42'10 9.4
2015-Jun-25 07:29N 55°34' E 014°57'  

Dump ship's entire track history